20NY weather

Stafford Airport
Stafford, New York, United States

Public forecast

Using degrees Fahrenheit for public forecast. Weather courtesy of forecast.io.

METAR (pilot weather report)

Closest report is Greater Rochester International Airport, 17.6 nm (32.5 km) ENE. Retrieved 2019/06/16 21:54 UTC (34 minutes ago):

KROC 162154Z 24005KT 10SM -RA FEW035 SCT080 OVC100 16/13 A2989 RMK AO2 RAB34 SLP124 P0000 T01610128 $

TAF (pilot weather forecast)

Closest forecast is Greater Rochester International Airport, 17.6 nm (32.5 km) ENE. Retrieved 2019/06/16 18:36 UTC (4 hours ago):

TAF KROC 161734Z 1618/1718 06008KT P6SM OVC008 FM161900 04006KT P6SM OVC015 FM162100 01005KT P6SM SCT025 BKN040 FM170100 VRB03KT P6SM BKN060 FM170800 VRB03KT 3SM BR SCT060 FM171300 07006KT P6SM SCT100